Time;durP1;ratioP1;P1;durP2;ratioP2;P2;SDS_P1;SDS_P2;PMS_P1;PMS_P2;Temp;Humidity;BMP_temperature;BMP_pressure;BME280_temperature;BME280_humidity;BME280_pressure;Samples;Min_cycle;Max_cycle;Signal;HPM_P1;HPM_P2
2022/09/28 00:00:08;;;;;;;;;;;;;;;69.56;0.00;100638.91;5103378;28;19916;-67
2022/09/28 00:02:41;;;;;;;;;;;;;;;70.12;0.00;100636.31;5093224;27;19927;-67
2022/09/28 00:05:07;;;;;;;;;;;;;;;70.43;0.00;100637.28;5095219;28;19924;-65
2022/09/28 00:07:34;;;;;;;;;;;;;;;71.61;0.00;100650.38;5100368;28;20482;-65
2022/09/28 00:10:00;;;;;;;;;;;;;;;72.91;0.00;100643.69;5085434;28;19920;-65
2022/09/28 00:12:28;;;;;;;;;;;;;;;72.99;0.00;100634.09;5104982;28;19916;-66
2022/09/28 00:14:55;;;;;;;;;;;;;;;72.82;0.00;100630.00;5105530;28;19920;-65
2022/09/28 00:17:22;;;;;;;;;;;;;;;72.83;0.00;100637.50;5092319;28;19916;-66
2022/09/28 00:19:49;;;;;;;;;;;;;;;72.74;0.00;100630.63;5112547;28;19946;-66
2022/09/28 00:22:15;;;;;;;;;;;;;;;72.70;0.00;100630.50;5106394;28;19920;-66
2022/09/28 00:24:41;;;;;;;;;;;;;;;73.56;0.00;100632.91;5112271;27;20010;-67
2022/09/28 00:27:08;;;;;;;;;;;;;;;72.79;0.00;100640.44;5114284;27;19939;-67
2022/09/28 00:29:35;;;;;;;;;;;;;;;73.08;0.00;100633.50;5097760;28;19931;-67
2022/09/28 00:32:12;;;;;;;;;;;;;;;73.97;0.00;100639.56;5108037;28;19916;-66
2022/09/28 00:34:44;;;;;;;;;;;;;;;74.20;0.00;100632.44;5093573;27;20405;-66
2022/09/28 00:37:11;;;;;;;;;;;;;;;74.61;0.00;100630.72;5108240;28;20019;-66
2022/09/28 00:39:40;;;;;;;;;;;;;;;74.14;0.00;100638.31;5105735;28;20406;-66
2022/09/28 00:42:14;;;;;;;;;;;;;;;72.48;0.00;100636.78;5083247;28;19920;-66
2022/09/28 00:44:47;;;;;;;;;;;;;;;72.75;0.00;100638.13;5111825;27;20357;-64
2022/09/28 00:47:32;;;;;;;;;;;;;;;72.33;0.00;100640.91;5087694;28;19920;-64
2022/09/28 00:50:06;;;;;;;;;;;;;;;71.80;0.00;100642.63;5092669;28;19931;-64
2022/09/28 00:52:38;;;;;;;;;;;;;;;69.58;0.00;100641.94;5106947;28;20003;-65
2022/09/28 00:55:07;;;;;;;;;;;;;;;68.99;0.00;100642.81;5107411;28;19924;-67
2022/09/28 00:57:34;;;;;;;;;;;;;;;66.90;0.00;100648.81;5107090;28;19923;-64
2022/09/28 01:00:01;;;;;;;;;;;;;;;64.47;0.00;100645.13;5088160;28;19920;-65
2022/09/28 01:02:27;;;;;;;;;;;;;;;62.87;0.88;100650.88;5089986;28;19916;-65
2022/09/28 01:04:55;;;;;;;;;;;;;;;61.34;1.21;100654.53;5091128;28;19923;-65
2022/09/28 01:07:22;;;;;;;;;;;;;;;61.35;1.22;100650.19;5108611;28;19916;-66
2022/09/28 01:09:49;;;;;;;;;;;;;;;61.19;2.41;100654.91;5079501;28;19935;-68
2022/09/28 01:12:15;;;;;;;;;;;;;;;60.37;2.20;100651.94;5106279;28;19912;-68
2022/09/28 01:14:42;;;;;;;;;;;;;;;59.41;2.57;100654.72;5090823;28;19926;-68
2022/09/28 01:17:26;;;;;;;;;;;;;;;59.35;2.12;100645.47;5090727;28;19919;-67
2022/09/28 01:20:14;;;;;;;;;;;;;;;59.26;2.92;100656.56;5110522;28;20254;-67
2022/09/28 01:23:00;;;;;;;;;;;;;;;59.14;2.59;100646.78;5088500;28;20350;-68
2022/09/28 01:25:33;;;;;;;;;;;;;;;58.42;2.54;100656.22;5106309;28;19920;-67
2022/09/28 01:28:10;;;;;;;;;;;;;;;57.99;3.10;100653.38;5092070;28;20389;-66
2022/09/28 01:30:57;;;;;;;;;;;;;;;57.92;3.03;100644.69;5087604;28;19927;-65
2022/09/28 01:33:25;;;;;;;;;;;;;;;57.75;3.61;100648.38;5107735;28;19963;-65
2022/09/28 01:36:15;;;;;;;;;;;;;;;57.57;3.28;100656.34;5108528;28;19924;-67
2022/09/28 01:39:07;;;;;;;;;;;;;;;57.34;4.00;100655.78;5097011;28;19927;-66
2022/09/28 01:41:39;;;;;;;;;;;;;;;56.75;3.55;100662.97;5089434;28;20022;-67
2022/09/28 01:44:07;;;;;;;;;;;;;;;56.28;3.63;100657.94;5110798;28;19992;-67
2022/09/28 01:46:40;;;;;;;;;;;;;;;56.44;3.65;100655.72;5093908;28;19916;-67
2022/09/28 01:49:11;;;;;;;;;;;;;;;56.32;3.75;100664.91;5111587;28;20073;-66
2022/09/28 01:51:40;;;;;;;;;;;;;;;56.05;4.31;100663.84;5091953;28;19926;-67
2022/09/28 01:54:19;;;;;;;;;;;;;;;56.10;4.45;100665.75;5093177;28;19981;-68
2022/09/28 01:57:05;;;;;;;;;;;;;;;55.66;4.74;100663.09;5109442;27;19920;-68
2022/09/28 01:59:34;;;;;;;;;;;;;;;55.80;4.27;100665.81;5092313;28;19958;-66
2022/09/28 02:02:06;;;;;;;;;;;;;;;55.83;4.37;100670.44;5088307;28;19920;-66
2022/09/28 02:04:40;;;;;;;;;;;;;;;55.75;4.49;100671.25;5093623;28;20289;-67
2022/09/28 02:07:11;;;;;;;;;;;;;;;55.89;4.44;100671.03;5088970;28;19927;-66
2022/09/28 02:09:41;;;;;;;;;;;;;;;55.30;4.65;100668.34;5093211;28;19924;-67
2022/09/28 02:12:27;;;;;;;;;;;;;;;55.52;4.94;100676.31;5114020;28;19938;-66
2022/09/28 02:14:58;;;;;;;;;;;;;;;55.56;4.32;100678.84;5044450;28;19923;-67
2022/09/28 02:17:25;;;;;;;;;;;;;;;55.69;4.90;100685.28;5093624;28;19931;-68
2022/09/28 02:19:52;;;;;;;;;;;;;;;55.42;4.81;100684.88;5110014;28;19981;-68
2022/09/28 02:22:22;;;;;;;;;;;;;;;55.56;4.58;100687.59;5092891;28;20246;-68
2022/09/28 02:24:57;;;;;;;;;;;;;;;55.53;4.74;100695.38;5112185;28;19927;-66
2022/09/28 02:27:25;;;;;;;;;;;;;;;55.56;5.10;100700.03;5093287;28;20358;-68
2022/09/28 02:29:54;;;;;;;;;;;;;;;55.44;4.34;100705.47;5090689;28;20649;-67
2022/09/28 02:32:23;;;;;;;;;;;;;;;55.40;5.00;100702.16;5110412;27;19967;-67
2022/09/28 02:34:49;;;;;;;;;;;;;;;55.37;4.39;100709.16;5093214;28;19923;-68
2022/09/28 02:37:16;;;;;;;;;;;;;;;55.22;5.04;100706.19;5105793;28;19920;-66
2022/09/28 02:39:44;;;;;;;;;;;;;;;55.29;5.22;100710.50;5108939;28;19916;-67
2022/09/28 02:42:19;;;;;;;;;;;;;;;55.34;5.01;100715.38;5090889;28;20378;-67
2022/09/28 02:44:52;;;;;;;;;;;;;;;55.23;4.87;100712.81;5090877;28;20425;-67
2022/09/28 02:47:33;;;;;;;;;;;;;;;55.14;4.68;100725.81;5092815;28;20472;-66
2022/09/28 02:50:14;;;;;;;;;;;;;;;55.07;5.30;100729.50;5088487;28;19916;-67
2022/09/28 02:52:49;;;;;;;;;;;;;;;55.07;5.25;100724.44;5111461;28;19920;-68
2022/09/28 02:55:25;;;;;;;;;;;;;;;54.96;5.38;100724.81;5111700;28;19920;-67
2022/09/28 02:57:52;;;;;;;;;;;;;;;54.83;5.28;100731.53;5105400;27;20003;-68
2022/09/28 03:00:20;;;;;;;;;;;;;;;54.88;5.08;100732.72;5092913;28;20002;-69
2022/09/28 03:02:53;;;;;;;;;;;;;;;54.79;5.28;100727.44;5113782;28;20402;-67
2022/09/28 03:05:20;;;;;;;;;;;;;;;54.72;4.53;100739.84;5088951;28;19931;-67
2022/09/28 03:07:52;;;;;;;;;;;;;;;54.67;5.36;100735.75;5094155;28;19926;-67
2022/09/28 03:10:19;;;;;;;;;;;;;;;54.64;5.32;100750.69;5090252;28;19924;-66
2022/09/28 03:12:47;;;;;;;;;;;;;;;54.53;4.93;100754.69;5108115;28;19920;-66
2022/09/28 03:15:22;;;;;;;;;;;;;;;54.57;4.69;100757.97;5092569;28;19920;-66
2022/09/28 03:17:49;;;;;;;;;;;;;;;54.52;5.35;100753.91;5083990;28;19977;-65
2022/09/28 03:20:16;;;;;;;;;;;;;;;54.48;5.25;100753.50;5110845;28;20010;-66
2022/09/28 03:22:43;;;;;;;;;;;;;;;54.55;5.32;100761.47;5110466;28;19924;-67
2022/09/28 03:25:10;;;;;;;;;;;;;;;54.48;5.22;100761.44;5094293;28;19924;-65
2022/09/28 03:27:38;;;;;;;;;;;;;;;54.34;4.79;100763.69;5092509;28;20010;-65
2022/09/28 03:30:06;;;;;;;;;;;;;;;54.20;5.31;100770.94;5090061;28;20011;-67
2022/09/28 03:32:33;;;;;;;;;;;;;;;54.18;5.50;100773.66;5092338;28;20442;-65
2022/09/28 03:34:59;;;;;;;;;;;;;;;54.18;5.61;100782.38;5094417;28;19919;-67
2022/09/28 03:37:26;;;;;;;;;;;;;;;54.12;5.56;100782.53;5088982;28;20394;-67
2022/09/28 03:39:53;;;;;;;;;;;;;;;54.10;5.66;100788.16;5076472;28;20371;-66
2022/09/28 03:42:19;;;;;;;;;;;;;;;53.80;5.40;100784.97;5110375;28;20015;-66
2022/09/28 03:44:49;;;;;;;;;;;;;;;53.58;6.11;100790.00;5092377;28;19992;-65
2022/09/28 03:47:17;;;;;;;;;;;;;;;53.53;5.99;100793.03;5092170;28;19920;-65
2022/09/28 03:49:44;;;;;;;;;;;;;;;53.16;6.90;100803.66;5108133;28;19919;-65
2022/09/28 03:52:11;;;;;;;;;;;;;;;53.22;6.63;100794.81;5112658;28;19927;-66
2022/09/28 03:54:37;;;;;;;;;;;;;;;53.26;6.48;100813.44;5112141;28;20037;-64
2022/09/28 03:57:05;;;;;;;;;;;;;;;53.51;6.62;100808.16;5089625;28;19965;-67
2022/09/28 03:59:31;;;;;;;;;;;;;;;53.65;5.66;100808.84;5091936;28;19959;-65
2022/09/28 04:01:57;;;;;;;;;;;;;;;53.67;5.34;100811.97;5085788;28;20586;-65
2022/09/28 04:04:24;;;;;;;;;;;;;;;53.58;6.03;100813.25;5089045;28;20265;-63
2022/09/28 04:06:51;;;;;;;;;;;;;;;53.60;5.68;100818.50;5091606;28;19959;-66
2022/09/28 04:09:17;;;;;;;;;;;;;;;53.56;6.52;100818.06;5077344;28;19920;-65
2022/09/28 04:11:45;;;;;;;;;;;;;;;53.58;5.63;100827.78;5108112;27;20382;-65
2022/09/28 04:14:11;;;;;;;;;;;;;;;53.64;5.59;100824.72;5089720;28;19920;-65
2022/09/28 04:16:38;;;;;;;;;;;;;;;53.70;5.90;100822.50;5083065;28;19920;-65
2022/09/28 04:19:10;;;;;;;;;;;;;;;53.66;5.65;100836.56;5081519;28;20136;-66
2022/09/28 04:22:07;;;;;;;;;;;;;;;53.63;5.87;100841.38;5080843;28;20018;-66
2022/09/28 04:24:33;;;;;;;;;;;;;;;53.50;6.14;100838.53;5080508;28;20004;-66
2022/09/28 04:29:44;;;;;;;;;;;;;;;53.23;5.98;100846.53;5086021;28;19936;-67
2022/09/28 04:32:13;;;;;;;;;;;;;;;53.21;6.44;100836.84;5085054;28;19967;-66
2022/09/28 04:34:40;;;;;;;;;;;;;;;53.20;6.87;100838.97;5085576;28;20378;-67
2022/09/28 04:37:06;;;;;;;;;;;;;;;53.19;6.67;100848.25;5086848;28;19952;-67
2022/09/28 04:39:32;;;;;;;;;;;;;;;53.10;6.24;100846.56;5088642;28;20006;-66
2022/09/28 04:42:00;;;;;;;;;;;;;;;53.20;7.41;100850.59;5086054;28;19921;-66
2022/09/28 04:44:27;;;;;;;;;;;;;;;53.19;6.79;100849.03;5080241;28;20402;-69
2022/09/28 04:47:00;;;;;;;;;;;;;;;52.99;6.24;100852.63;5082821;28;20275;-68
2022/09/28 04:49:27;;;;;;;;;;;;;;;52.93;6.81;100851.94;5079015;28;19939;-69
2022/09/28 04:51:56;;;;;;;;;;;;;;;52.79;7.29;100851.16;5090782;28;20661;-66
2022/09/28 04:54:23;;;;;;;;;;;;;;;52.68;7.03;100857.19;5077626;28;20046;-66
2022/09/28 04:56:51;;;;;;;;;;;;;;;52.66;7.03;100854.84;5057461;28;19931;-66
2022/09/28 04:59:17;;;;;;;;;;;;;;;52.51;6.86;100849.59;5079692;28;19932;-66
2022/09/28 05:01:44;;;;;;;;;;;;;;;52.49;7.54;100857.28;5085616;28;19924;-66
2022/09/28 05:04:29;;;;;;;;;;;;;;;52.45;7.48;100859.75;5082058;28;20392;-65
2022/09/28 05:07:11;;;;;;;;;;;;;;;52.43;7.59;100857.41;5080697;28;19924;-66
2022/09/28 05:09:37;;;;;;;;;;;;;;;52.53;7.56;100864.31;5089163;28;19927;-65
2022/09/28 05:12:04;;;;;;;;;;;;;;;52.52;6.84;100862.75;5084151;28;19936;-66
2022/09/28 05:14:30;;;;;;;;;;;;;;;52.49;7.42;100869.69;5081865;28;19928;-66
2022/09/28 05:16:57;;;;;;;;;;;;;;;52.52;7.52;100873.59;5081193;28;20022;-67
2022/09/28 05:19:26;;;;;;;;;;;;;;;52.52;7.08;100876.50;5082689;28;19920;-67
2022/09/28 05:21:59;;;;;;;;;;;;;;;52.54;6.93;100874.59;5083283;28;19928;-66
2022/09/28 05:24:25;;;;;;;;;;;;;;;52.52;8.07;100885.19;5090562;28;19924;-65
2022/09/28 05:26:53;;;;;;;;;;;;;;;52.36;7.89;100883.34;5088725;28;20019;-68
2022/09/28 05:29:19;;;;;;;;;;;;;;;52.23;7.48;100887.00;5080454;28;20396;-67
2022/09/28 05:31:45;;;;;;;;;;;;;;;52.26;8.12;100880.13;5097657;28;20439;-65
2022/09/28 05:34:20;;;;;;;;;;;;;;;52.29;7.85;100881.13;5077301;28;19923;-66
2022/09/28 05:36:47;;;;;;;;;;;;;;;52.31;7.32;100875.56;5104346;28;19920;-68
2022/09/28 05:39:14;;;;;;;;;;;;;;;52.20;7.46;100879.41;5100262;28;19979;-67
2022/09/28 05:41:42;;;;;;;;;;;;;;;52.17;7.11;100872.63;5096500;28;19959;-68
2022/09/28 05:44:08;;;;;;;;;;;;;;;52.09;8.01;100880.41;5064295;28;20468;-65
2022/09/28 05:46:35;;;;;;;;;;;;;;;52.14;7.49;100873.72;5076692;28;19965;-66
2022/09/28 05:49:01;;;;;;;;;;;;;;;52.23;7.92;100878.31;5078195;28;19963;-64
2022/09/28 05:51:28;;;;;;;;;;;;;;;52.28;7.77;100873.75;5077236;28;19974;-66
2022/09/28 05:53:55;;;;;;;;;;;;;;;52.27;7.38;100875.88;5093145;28;19920;-66
2022/09/28 05:56:22;;;;;;;;;;;;;;;52.18;7.18;100879.97;5078323;28;20297;-66
2022/09/28 05:58:51;;;;;;;;;;;;;;;52.21;7.70;100878.88;5084821;28;19954;-64
2022/09/28 06:01:20;;;;;;;;;;;;;;;52.24;7.40;100883.56;5085536;28;19931;-65
2022/09/28 06:03:48;;;;;;;;;;;;;;;52.12;7.60;100890.13;5081754;28;19928;-66
2022/09/28 06:06:14;;;;;;;;;;;;;;;52.18;7.49;100885.78;5084599;28;19923;-67
2022/09/28 06:08:42;;;;;;;;;;;;;;;52.21;7.46;100886.78;5088303;28;20412;-66
2022/09/28 06:11:40;;;;;;;;;;;;;;;51.60;7.48;100886.41;5078497;28;19924;-68
2022/09/28 06:14:30;;;;;;;;;;;;;;;51.71;7.63;100888.38;5088604;28;19946;-66
2022/09/28 06:16:56;;;;;;;;;;;;;;;51.77;7.81;100882.50;5084651;28;20015;-65
2022/09/28 06:19:23;;;;;;;;;;;;;;;51.81;7.56;100885.84;5104408;28;19927;-66
2022/09/28 06:22:07;;;;;;;;;;;;;;;51.71;7.51;100878.88;5085475;28;19927;-64
2022/09/28 06:24:42;;;;;;;;;;;;;;;51.41;7.49;100887.75;5092729;28;19920;-66
2022/09/28 06:27:09;;;;;;;;;;;;;;;51.46;7.53;100881.88;5094085;28;20312;-65
2022/09/28 06:29:36;;;;;;;;;;;;;;;51.38;7.83;100883.84;5105243;28;19923;-65
2022/09/28 06:32:02;;;;;;;;;;;;;;;51.41;7.63;100882.75;5088005;28;19926;-66
2022/09/28 06:34:29;;;;;;;;;;;;;;;51.28;8.16;100880.50;5095065;28;19999;-65
2022/09/28 06:36:55;;;;;;;;;;;;;;;51.35;8.31;100891.50;5092657;28;19927;-65
2022/09/28 06:39:22;;;;;;;;;;;;;;;51.52;8.00;100894.16;5089228;28;20002;-65
2022/09/28 06:41:49;;;;;;;;;;;;;;;51.58;7.44;100900.66;5080033;28;19919;-64
2022/09/28 06:44:19;;;;;;;;;;;;;;;51.60;7.49;100900.91;5089772;28;19919;-64
2022/09/28 06:47:04;;;;;;;;;;;;;;;51.52;7.69;100896.25;5105232;28;20011;-64
2022/09/28 06:49:54;;;;;;;;;;;;;;;51.24;8.22;100902.44;5087928;28;19927;-65
2022/09/28 06:52:26;;;;;;;;;;;;;;;51.11;8.22;100916.81;5111560;28;19966;-65
2022/09/28 06:55:23;;;;;;;;;;;;;;;51.06;8.11;100904.75;5097501;28;19919;-65
2022/09/28 06:57:58;;;;;;;;;;;;;;;50.99;8.49;100911.13;5097197;28;20349;-65
2022/09/28 07:00:25;;;;;;;;;;;;;;;51.10;8.06;100892.09;5097340;28;19927;-66
2022/09/28 07:02:51;;;;;;;;;;;;;;;51.19;7.90;100895.41;5096347;28;19955;-66
2022/09/28 07:05:53;;;;;;;;;;;;;;;51.24;7.95;100902.44;5069900;28;19935;-65
2022/09/28 07:08:32;;;;;;;;;;;;;;;51.30;8.17;100894.44;5115361;28;20030;-66
2022/09/28 07:11:19;;;;;;;;;;;;;;;51.31;8.07;100891.00;5097184;28;19919;-66
2022/09/28 07:14:01;;;;;;;;;;;;;;;51.18;8.13;100893.03;5115199;27;20373;-66
2022/09/28 07:16:29;;;;;;;;;;;;;;;51.23;8.32;100900.88;5117273;27;19920;-65
2022/09/28 07:18:56;;;;;;;;;;;;;;;51.11;8.73;100893.66;5116855;27;19916;-66
2022/09/28 07:21:22;;;;;;;;;;;;;;;51.01;8.29;100896.91;5116817;27;19925;-66
2022/09/28 07:23:48;;;;;;;;;;;;;;;51.06;8.41;100893.19;5117221;27;19926;-66
2022/09/28 07:26:15;;;;;;;;;;;;;;;51.04;8.24;100892.16;5135325;27;19962;-66
2022/09/28 07:28:54;;;;;;;;;;;;;;;50.94;8.91;100893.81;5117305;27;19967;-66
2022/09/28 07:31:55;;;;;;;;;;;;;;;50.88;8.51;100893.91;5069023;28;20414;-65
2022/09/28 07:34:28;;;;;;;;;;;;;;;50.81;8.43;100887.91;5104653;28;19955;-65
2022/09/28 07:37:12;;;;;;;;;;;;;;;50.66;8.90;100891.22;5096268;28;19919;-65
2022/09/28 07:42:27;;;;;;;;;;;;;;;50.60;9.08;100890.50;5096247;28;20062;-65
2022/09/28 07:44:55;;;;;;;;;;;;;;;50.65;8.65;100896.25;5096338;28;19975;-64
2022/09/28 07:47:27;;;;;;;;;;;;;;;50.61;9.26;100886.28;5096241;28;19932;-65
2022/09/28 07:50:16;;;;;;;;;;;;;;;50.63;8.44;100884.41;5086830;28;19924;-66
2022/09/28 07:53:04;;;;;;;;;;;;;;;50.67;9.07;100881.22;5106697;28;19920;-64
2022/09/28 07:55:40;;;;;;;;;;;;;;;50.56;8.89;100887.13;5083302;28;19924;-65
2022/09/28 07:58:10;;;;;;;;;;;;;;;50.52;9.42;100880.84;5094129;28;19920;-65
2022/09/28 08:00:52;;;;;;;;;;;;;;;50.30;8.90;100879.72;5094096;28;20385;-65
2022/09/28 08:03:22;;;;;;;;;;;;;;;50.22;9.16;100883.75;5089780;28;20006;-65
2022/09/28 08:05:48;;;;;;;;;;;;;;;50.16;9.11;100881.69;5096164;28;19920;-65
2022/09/28 08:08:15;;;;;;;;;;;;;;;50.18;8.97;100889.81;5095735;28;19920;-65
2022/09/28 08:10:42;;;;;;;;;;;;;;;50.26;8.94;100890.00;5096057;28;19981;-64
2022/09/28 08:13:27;;;;;;;;;;;;;;;50.25;8.94;100886.31;5114563;28;20333;-65
2022/09/28 08:16:03;;;;;;;;;;;;;;;50.31;8.99;100887.06;5114223;28;19920;-65
2022/09/28 08:18:39;;;;;;;;;;;;;;;50.37;8.78;100893.63;5095838;28;20381;-64
2022/09/28 08:23:51;;;;;;;;;;;;;;;50.35;9.00;100893.38;5081582;28;19923;-65
2022/09/28 08:26:17;;;;;;;;;;;;;;;50.35;8.85;100899.16;5095586;28;19951;-65
2022/09/28 08:28:46;;;;;;;;;;;;;;;50.33;8.68;100895.22;5095717;28;19927;-64
2022/09/28 08:31:35;;;;;;;;;;;;;;;50.15;9.48;100894.56;5102763;28;20018;-65
2022/09/28 08:34:14;;;;;;;;;;;;;;;50.21;9.36;100900.31;5095806;28;20027;-64
2022/09/28 08:36:58;;;;;;;;;;;;;;;50.12;9.27;100897.78;5114131;28;20324;-65
2022/09/28 08:39:59;;;;;;;;;;;;;;;50.22;9.71;100907.66;5031247;28;19921;-65
2022/09/28 08:42:44;;;;;;;;;;;;;;;50.17;8.97;100908.50;5107167;28;19927;-67
2022/09/28 08:45:43;;;;;;;;;;;;;;;50.10;9.31;100914.88;5087404;28;19943;-65
2022/09/28 08:48:47;;;;;;;;;;;;;;;49.68;9.86;100916.97;5074459;28;19950;-65
2022/09/28 08:51:14;;;;;;;;;;;;;;;49.38;10.31;100921.81;5093213;28;19927;-66
2022/09/28 08:54:12;;;;;;;;;;;;;;;49.55;9.88;100925.41;5075179;28;20334;-65
2022/09/28 08:56:53;;;;;;;;;;;;;;;49.53;10.15;100928.84;5092097;28;19927;-65
2022/09/28 08:59:23;;;;;;;;;;;;;;;49.45;9.74;100922.06;5075091;28;20261;-65
2022/09/28 09:01:58;;;;;;;;;;;;;;;49.20;10.41;100940.50;5077556;28;19920;-65
2022/09/28 09:04:26;;;;;;;;;;;;;;;48.94;10.05;100941.66;5094942;28;20286;-64
2022/09/28 09:07:09;;;;;;;;;;;;;;;48.80;10.23;100954.25;5095000;28;20006;-65
2022/09/28 09:09:48;;;;;;;;;;;;;;;48.29;10.41;100956.34;5095454;28;19920;-65
2022/09/28 09:12:15;;;;;;;;;;;;;;;48.32;11.01;100957.41;5113263;28;19964;-65
2022/09/28 09:14:51;;;;;;;;;;;;;;;48.15;10.61;100963.13;5095114;28;19922;-65
2022/09/28 09:17:38;;;;;;;;;;;;;;;47.70;11.26;100971.63;5112755;28;19920;-64
2022/09/28 09:20:16;;;;;;;;;;;;;;;48.31;11.08;100970.25;5112972;28;19946;-65
2022/09/28 09:22:57;;;;;;;;;;;;;;;48.31;10.94;100967.38;5093975;28;19920;-65
2022/09/28 09:25:27;;;;;;;;;;;;;;;48.75;10.72;100966.59;5112664;28;20437;-66
2022/09/28 09:28:14;;;;;;;;;;;;;;;48.23;11.38;100967.09;5094872;28;19965;-65
2022/09/28 09:30:50;;;;;;;;;;;;;;;47.79;12.12;100970.63;5074339;28;19959;-67
2022/09/28 09:33:29;;;;;;;;;;;;;;;48.53;12.03;100961.59;5088404;28;19920;-66
2022/09/28 09:36:14;;;;;;;;;;;;;;;48.98;11.62;100964.47;5113428;28;20387;-65
2022/09/28 09:39:05;;;;;;;;;;;;;;;49.22;11.93;100961.00;5113472;28;20258;-65
2022/09/28 09:42:03;;;;;;;;;;;;;;;49.51;11.44;100953.81;5113305;28;19964;-66
2022/09/28 09:44:38;;;;;;;;;;;;;;;49.57;11.53;100945.91;5112883;28;19923;-65
2022/09/28 09:47:30;;;;;;;;;;;;;;;49.53;11.53;100942.50;5073745;28;19931;-65
2022/09/28 09:50:11;;;;;;;;;;;;;;;49.55;12.02;100934.84;5113079;28;19919;-65
2022/09/28 09:52:46;;;;;;;;;;;;;;;49.42;11.90;100939.69;5077631;28;19920;-66
2022/09/28 09:55:14;;;;;;;;;;;;;;;49.11;12.64;100944.50;5112955;28;19960;-66
2022/09/28 09:58:21;;;;;;;;;;;;;;;49.18;12.37;100946.03;5094493;28;20021;-65
2022/09/28 10:00:54;;;;;;;;;;;;;;;49.20;12.80;100926.06;5080996;28;20377;-65
2022/09/28 10:03:43;;;;;;;;;;;;;;;49.08;12.61;100936.91;5109699;28;20389;-65
2022/09/28 10:06:16;;;;;;;;;;;;;;;49.09;13.12;100929.81;5094926;28;20353;-65
2022/09/28 10:08:45;;;;;;;;;;;;;;;49.01;12.98;100935.31;5094600;28;19920;-66
2022/09/28 10:11:15;;;;;;;;;;;;;;;48.88;13.70;100943.75;5094343;28;19965;-66
2022/09/28 10:13:48;;;;;;;;;;;;;;;48.99;13.15;100934.28;5095061;28;19920;-67
2022/09/28 10:16:51;;;;;;;;;;;;;;;49.03;13.53;100931.94;5085385;28;19924;-66
2022/09/28 10:19:38;;;;;;;;;;;;;;;49.09;13.52;100935.56;5095830;28;19969;-64
2022/09/28 10:22:26;;;;;;;;;;;;;;;49.07;13.86;100929.53;5095598;28;19970;-65
2022/09/28 10:24:58;;;;;;;;;;;;;;;49.14;14.01;100923.22;5094860;28;19936;-64
2022/09/28 10:27:26;;;;;;;;;;;;;;;49.10;14.26;100931.38;5095932;28;19916;-65
2022/09/28 10:30:11;;;;;;;;;;;;;;;48.96;13.82;100932.47;5095891;28;19924;-65
2022/09/28 10:32:39;;;;;;;;;;;;;;;49.03;14.78;100926.16;5097819;28;19959;-66
2022/09/28 10:35:13;;;;;;;;;;;;;;;48.87;15.30;100938.50;5097561;28;19915;-65
2022/09/28 10:37:55;;;;;;;;;;;;;;;49.04;14.63;100924.84;5097974;28;19919;-66
2022/09/28 10:40:43;;;;;;;;;;;;;;;49.01;14.55;100923.00;5115076;28;20426;-64
2022/09/28 10:43:22;;;;;;;;;;;;;;;48.90;13.24;100925.91;5098045;28;19930;-66
2022/09/28 10:45:59;;;;;;;;;;;;;;;48.99;14.18;100925.63;5097645;28;20015;-66
2022/09/28 10:48:27;;;;;;;;;;;;;;;48.83;13.92;100927.19;5096631;28;19980;-65
2022/09/28 10:50:58;;;;;;;;;;;;;;;49.05;14.50;100916.97;5096890;28;20014;-65
2022/09/28 10:53:25;;;;;;;;;;;;;;;49.06;15.01;100924.31;5097303;28;19920;-66
2022/09/28 10:56:20;;;;;;;;;;;;;;;48.95;15.79;100925.13;5097137;28;19945;-65
2022/09/28 10:58:50;;;;;;;;;;;;;;;48.87;15.43;100929.84;5097256;28;20006;-66
2022/09/28 11:01:32;;;;;;;;;;;;;;;48.97;15.13;100928.25;5097097;28;19988;-67
2022/09/28 11:04:00;;;;;;;;;;;;;;;48.95;15.73;100928.78;5097232;28;19972;-67
2022/09/28 11:06:28;;;;;;;;;;;;;;;49.04;15.56;100919.06;5115549;28;19916;-66
2022/09/28 11:09:00;;;;;;;;;;;;;;;49.27;15.84;100917.66;5097383;28;20026;-68
2022/09/28 11:11:28;;;;;;;;;;;;;;;49.23;15.91;100922.94;5096875;28;20006;-65
2022/09/28 11:14:04;;;;;;;;;;;;;;;49.31;16.61;100918.19;5097265;28;20445;-66
2022/09/28 11:16:35;;;;;;;;;;;;;;;49.29;16.10;100920.81;5097246;28;20405;-67
2022/09/28 11:19:25;;;;;;;;;;;;;;;49.35;16.63;100922.88;5096963;28;20437;-67
2022/09/28 11:21:53;;;;;;;;;;;;;;;49.33;15.46;100928.41;5096996;28;19966;-67
2022/09/28 11:24:33;;;;;;;;;;;;;;;49.06;16.98;100933.75;5096749;28;20374;-66
2022/09/28 11:27:02;;;;;;;;;;;;;;;49.03;17.82;100931.16;5096623;28;19980;-67
2022/09/28 11:29:35;;;;;;;;;;;;;;;49.19;17.23;100945.50;5096179;28;20278;-67
2022/09/28 11:32:17;;;;;;;;;;;;;;;49.18;17.27;100938.16;5114846;28;19965;-66
2022/09/28 11:35:03;;;;;;;;;;;;;;;49.27;17.06;100945.75;5114651;28;20011;-67
2022/09/28 11:37:37;;;;;;;;;;;;;;;49.37;17.05;100940.47;5080186;28;20285;-67
2022/09/28 11:40:22;;;;;;;;;;;;;;;49.25;16.88;100952.06;5115259;28;20289;-67
2022/09/28 11:42:49;;;;;;;;;;;;;;;49.29;17.42;100957.59;5096731;28;19927;-67
2022/09/28 11:45:36;;;;;;;;;;;;;;;49.30;17.29;100954.16;5095896;28;20364;-68
2022/09/28 11:48:05;;;;;;;;;;;;;;;49.17;17.39;100961.78;5096562;28;20028;-67
2022/09/28 11:50:34;;;;;;;;;;;;;;;48.96;17.30;100962.09;5080154;28;19930;-67
2022/09/28 11:53:13;;;;;;;;;;;;;;;48.96;17.72;100972.88;5079599;28;19934;-67
2022/09/28 11:55:50;;;;;;;;;;;;;;;48.88;17.74;100971.81;5080997;28;20310;-67
2022/09/28 11:58:23;;;;;;;;;;;;;;;48.61;19.08;100970.53;5074840;28;19920;-65
2022/09/28 12:00:53;;;;;;;;;;;;;;;48.55;18.52;100973.41;5075921;28;19920;-66
2022/09/28 12:03:31;;;;;;;;;;;;;;;48.63;18.71;100968.69;5091381;28;19920;-67
2022/09/28 12:06:00;;;;;;;;;;;;;;;48.66;18.99;100984.16;5096285;28;19924;-65
2022/09/28 12:08:29;;;;;;;;;;;;;;;48.18;19.01;100995.91;5095603;28;19928;-65
2022/09/28 12:11:20;;;;;;;;;;;;;;;48.48;19.22;100988.34;5114364;28;20405;-65
2022/09/28 12:14:28;;;;;;;;;;;;;;;47.96;20.41;101003.19;5051314;28;20394;-64
2022/09/28 12:17:04;;;;;;;;;;;;;;;48.10;19.90;100995.59;5051564;28;19928;-65
2022/09/28 12:19:57;;;;;;;;;;;;;;;48.05;19.70;101000.06;5086301;28;19920;-67
2022/09/28 12:22:29;;;;;;;;;;;;;;;48.51;19.40;100995.97;5074484;28;20337;-67
2022/09/28 12:24:57;;;;;;;;;;;;;;;48.35;20.20;101011.16;5114206;28;19920;-67
2022/09/28 12:27:31;;;;;;;;;;;;;;;48.32;19.66;101012.22;5114001;28;19916;-67
2022/09/28 12:30:07;;;;;;;;;;;;;;;48.24;20.19;101011.13;5114183;28;19943;-67
2022/09/28 12:32:36;;;;;;;;;;;;;;;48.43;19.74;101017.97;5111761;28;19923;-65
2022/09/28 12:35:10;;;;;;;;;;;;;;;48.61;19.31;101010.91;5095921;28;20277;-66
2022/09/28 12:37:52;;;;;;;;;;;;;;;48.64;18.81;101013.53;5114104;28;19919;-66
2022/09/28 12:40:27;;;;;;;;;;;;;;;48.11;19.98;101020.25;5095711;28;20263;-66
2022/09/28 12:43:09;;;;;;;;;;;;;;;48.02;19.67;101029.94;5113054;28;19927;-65
2022/09/28 12:45:35;;;;;;;;;;;;;;;47.65;20.62;101035.78;5095455;28;19924;-66
2022/09/28 12:48:07;;;;;;;;;;;;;;;46.61;21.54;101032.38;5093275;28;20363;-67
2022/09/28 12:50:45;;;;;;;;;;;;;;;47.12;20.96;101036.47;5093608;28;19924;-66
2022/09/28 12:53:37;;;;;;;;;;;;;;;47.33;21.10;101051.56;5081056;28;19931;-67
2022/09/28 12:56:13;;;;;;;;;;;;;;;47.95;19.71;101041.97;5086440;28;20334;-67
2022/09/28 12:58:58;;;;;;;;;;;;;;;47.70;20.26;101046.53;5084239;28;20144;-65
2022/09/28 13:01:28;;;;;;;;;;;;;;;47.53;20.39;101046.47;5079142;28;19959;-63
2022/09/28 13:03:55;;;;;;;;;;;;;;;46.17;22.42;101053.63;5103883;28;19928;-63
2022/09/28 13:06:36;;;;;;;;;;;;;;;46.68;21.80;101063.56;5106499;28;20540;-64
2022/09/28 13:09:02;;;;;;;;;;;;;;;47.46;20.68;101069.97;5103578;28;19919;-65
2022/09/28 13:11:30;;;;;;;;;;;;;;;47.76;20.70;101070.44;5084130;28;20346;-64
2022/09/28 13:14:03;;;;;;;;;;;;;;;47.33;20.89;101077.47;5082282;28;19991;-65
2022/09/28 13:16:47;;;;;;;;;;;;;;;47.60;20.69;101085.53;5103860;28;19967;-66
2022/09/28 13:19:18;;;;;;;;;;;;;;;47.12;21.07;101086.22;5092805;28;20305;-68
2022/09/28 13:21:44;;;;;;;;;;;;;;;47.37;20.53;101084.56;5093065;28;19920;-67
2022/09/28 13:24:13;;;;;;;;;;;;;;;47.87;20.25;101087.00;5096144;28;20011;-66